This is the latest recevied weather packets stored in our database for station/object K0CVS. If no packets are shown the sender has not sent any weather packets the latest 10 day(s).
| Time | Temp. | Humidity | Pressure | Rain* | Wind** | Luminosity | Snow |
|---|---|---|---|---|---|---|---|
| 1778016096 | 10.56° C | 82% | 1012.3 hPa | 0 mm | - | 123 W/m² | - |
| 1778015793 | 10.56° C | 83% | 1012.4 hPa | 0 mm | - | 105 W/m² | - |
| 1778015490 | 10° C | 83% | 1012.2 hPa | 0 mm | - | 126 W/m² | - |
| 1778015187 | 9.44° C | 85% | 1012.4 hPa | 0 mm | - | 107 W/m² | - |
| 1778014883 | 9.44° C | 84% | 1012.2 hPa | 0 mm | - | 101 W/m² | - |
| 1778014581 | 9.44° C | 85% | 1012.3 hPa | 0 mm | - | 76 W/m² | - |
| 1778014279 | 9.44° C | 85% | 1012.2 hPa | 0 mm | - | 60 W/m² | - |
| 1778013976 | 9.44° C | 86% | 1012.5 hPa | 0 mm | - | 71 W/m² | - |
| 1778013673 | 9.44° C | 86% | 1012.4 hPa | 0 mm | - | 66 W/m² | - |
| 1778013370 | 9.44° C | 86% | 1012.5 hPa | 0 mm | - | 52 W/m² | - |
| 1778013067 | 9.44° C | 87% | 1012.4 hPa | 0 mm | - | 54 W/m² | - |
| 1778012762 | 9.44° C | 86% | 1012.3 hPa | 0 mm | - | 61 W/m² | - |
| 1778012459 | 9.44° C | 86% | 1012.4 hPa | 0 mm | - | 68 W/m² | - |
| 1778012156 | 9.44° C | 87% | 1012.5 hPa | 0 mm | - | 94 W/m² | - |
| 1778011853 | 9.44° C | 86% | 1012.3 hPa | 0 mm | - | 96 W/m² | - |
| 1778011551 | 8.89° C | 85% | 1012.3 hPa | 0 mm | - | 72 W/m² | - |
| 1778011248 | 9.44° C | 84% | 1012.4 hPa | 0 mm | - | 76 W/m² | - |
| 1778010944 | 9.44° C | 84% | 1012.5 hPa | 0 mm | - | 62 W/m² | - |
| 1778010642 | 9.44° C | 83% | 1012.4 hPa | 1.27 mm | - | 53 W/m² | - |
| 1778010339 | 9.44° C | 82% | 1012.2 hPa | 1.27 mm | - | 59 W/m² | - |
| 1778010034 | 9.44° C | 82% | 1012.3 hPa | 0 mm | - | 85 W/m² | - |
| 1778009731 | 9.44° C | 85% | 1012.5 hPa | 0 mm | - | 104 W/m² | - |
| 1778009428 | 9.44° C | 85% | 1012.3 hPa | 0 mm | - | 92 W/m² | - |
| 1778009127 | 9.44° C | 83% | 1012.4 hPa | 0 mm | - | 91 W/m² | - |
| 1778008824 | 9.44° C | 83% | 1012.3 hPa | 0 mm | - | 102 W/m² | - |
* Rain latest hour (hover to see other rain measurements)
** Current wind speed in m/s (hover to see current wind gust speed)